Terminal Aerodrome Forecast
Issued by NWS Sioux Falls, SD

Home | Current Version | Previous Version | Text Only | Print | Product List | Glossary Off
Versions: 1 2 3 4 5 6 7 8 9 10 11 12 13 14 15 16 17 18 19

439
FTUS43 KFSD 160525
TAFFSD
TAF
KFSD 160525Z 1606/1706 VRB03KT P6SM OVC200
     FM161000 VRB03KT P6SM BKN025
     FM161200 VRB03KT 6SM -FZDZ OVC008
     FM161600 04004KT P6SM OVC010
     FM162000 01005KT 5SM -FZDZ OVC012
     FM170000 35006KT P6SM OVC015
     FM170400 34006KT P6SM BKN035=

USA.gov is the U.S. government's official web portal to all federal, state and local government web resources and services.